sensor_id;sensor_type;location;lat;lon;timestamp;temperature;humidity
4811;DHT22;2419;51.276;6.472;2024-02-21T00:01:08;9.30;99.90
4811;DHT22;2419;51.276;6.472;2024-02-21T00:03:36;9.30;99.90
4811;DHT22;2419;51.276;6.472;2024-02-21T00:06:04;9.30;99.90
4811;DHT22;2419;51.276;6.472;2024-02-21T00:08:32;9.30;99.90
4811;DHT22;2419;51.276;6.472;2024-02-21T00:11:00;9.30;99.90
4811;DHT22;2419;51.276;6.472;2024-02-21T00:13:30;9.30;99.90
4811;DHT22;2419;51.276;6.472;2024-02-21T00:16:00;9.30;99.90
4811;DHT22;2419;51.276;6.472;2024-02-21T00:18:28;9.30;99.90
4811;DHT22;2419;51.276;6.472;2024-02-21T00:20:56;9.40;99.90
4811;DHT22;2419;51.276;6.472;2024-02-21T00:23:24;9.40;99.90
4811;DHT22;2419;51.276;6.472;2024-02-21T00:25:52;9.40;99.90
4811;DHT22;2419;51.276;6.472;2024-02-21T00:28:21;9.40;99.90
4811;DHT22;2419;51.276;6.472;2024-02-21T00:30:50;9.40;99.90
4811;DHT22;2419;51.276;6.472;2024-02-21T00:33:20;9.40;99.90
4811;DHT22;2419;51.276;6.472;2024-02-21T00:35:48;9.40;99.90
4811;DHT22;2419;51.276;6.472;2024-02-21T00:38:16;9.40;99.90
4811;DHT22;2419;51.276;6.472;2024-02-21T00:40:45;9.30;99.90
4811;DHT22;2419;51.276;6.472;2024-02-21T00:43:13;9.30;99.90
4811;DHT22;2419;51.276;6.472;2024-02-21T00:45:41;9.30;99.90
4811;DHT22;2419;51.276;6.472;2024-02-21T00:48:11;9.30;99.90
4811;DHT22;2419;51.276;6.472;2024-02-21T00:50:39;9.30;99.90
4811;DHT22;2419;51.276;6.472;2024-02-21T00:53:07;9.30;99.90
4811;DHT22;2419;51.276;6.472;2024-02-21T00:55:36;9.30;99.90
4811;DHT22;2419;51.276;6.472;2024-02-21T00:58:04;9.30;99.90
4811;DHT22;2419;51.276;6.472;2024-02-21T01:00:32;9.30;99.90
4811;DHT22;2419;51.276;6.472;2024-02-21T01:03:00;9.30;99.90
4811;DHT22;2419;51.276;6.472;2024-02-21T01:05:30;9.30;99.90
4811;DHT22;2419;51.276;6.472;2024-02-21T01:07:58;9.30;99.90
4811;DHT22;2419;51.276;6.472;2024-02-21T01:10:26;9.30;99.90
4811;DHT22;2419;51.276;6.472;2024-02-21T01:12:54;9.30;99.90
4811;DHT22;2419;51.276;6.472;2024-02-21T01:15:22;9.30;99.90
4811;DHT22;2419;51.276;6.472;2024-02-21T01:17:50;9.30;99.90
4811;DHT22;2419;51.276;6.472;2024-02-21T01:20:21;9.40;99.90
4811;DHT22;2419;51.276;6.472;2024-02-21T01:22:51;9.30;99.90
4811;DHT22;2419;51.276;6.472;2024-02-21T01:25:19;9.30;99.90
4811;DHT22;2419;51.276;6.472;2024-02-21T01:27:47;9.30;99.90
4811;DHT22;2419;51.276;6.472;2024-02-21T01:30:15;9.30;99.90
4811;DHT22;2419;51.276;6.472;2024-02-21T01:32:43;9.30;99.90
4811;DHT22;2419;51.276;6.472;2024-02-21T01:35:11;9.30;99.90
4811;DHT22;2419;51.276;6.472;2024-02-21T01:37:39;9.30;99.90
4811;DHT22;2419;51.276;6.472;2024-02-21T01:40:10;9.40;99.90
4811;DHT22;2419;51.276;6.472;2024-02-21T01:42:39;9.30;99.90
4811;DHT22;2419;51.276;6.472;2024-02-21T01:45:08;9.40;99.90
4811;DHT22;2419;51.276;6.472;2024-02-21T01:47:37;9.40;99.90
4811;DHT22;2419;51.276;6.472;2024-02-21T01:50:06;9.40;99.90
4811;DHT22;2419;51.276;6.472;2024-02-21T01:52:35;9.40;99.90
4811;DHT22;2419;51.276;6.472;2024-02-21T01:55:04;9.40;99.90
4811;DHT22;2419;51.276;6.472;2024-02-21T01:57:34;9.30;99.90
4811;DHT22;2419;51.276;6.472;2024-02-21T02:00:04;9.30;99.90
4811;DHT22;2419;51.276;6.472;2024-02-21T02:02:38;9.40;99.90
4811;DHT22;2419;51.276;6.472;2024-02-21T02:05:07;9.30;99.90
4811;DHT22;2419;51.276;6.472;2024-02-21T02:07:36;9.40;99.90
4811;DHT22;2419;51.276;6.472;2024-02-21T02:10:05;9.40;99.90
4811;DHT22;2419;51.276;6.472;2024-02-21T02:12:34;9.30;99.90
4811;DHT22;2419;51.276;6.472;2024-02-21T02:15:03;9.40;99.90
4811;DHT22;2419;51.276;6.472;2024-02-21T02:17:32;9.40;99.90
4811;DHT22;2419;51.276;6.472;2024-02-21T02:20:00;9.40;99.90
4811;DHT22;2419;51.276;6.472;2024-02-21T02:22:29;9.30;99.90
4811;DHT22;2419;51.276;6.472;2024-02-21T02:25:01;9.30;99.90
4811;DHT22;2419;51.276;6.472;2024-02-21T02:27:29;9.30;99.90
4811;DHT22;2419;51.276;6.472;2024-02-21T02:29:57;9.20;99.90
4811;DHT22;2419;51.276;6.472;2024-02-21T02:32:25;9.20;99.90
4811;DHT22;2419;51.276;6.472;2024-02-21T02:34:54;9.20;99.90
4811;DHT22;2419;51.276;6.472;2024-02-21T02:37:23;9.20;99.90
4811;DHT22;2419;51.276;6.472;2024-02-21T02:39:51;9.20;99.90
4811;DHT22;2419;51.276;6.472;2024-02-21T02:42:20;9.10;99.90
4811;DHT22;2419;51.276;6.472;2024-02-21T02:44:48;9.10;99.90
4811;DHT22;2419;51.276;6.472;2024-02-21T02:47:17;9.10;99.90
4811;DHT22;2419;51.276;6.472;2024-02-21T02:49:45;9.10;99.90
4811;DHT22;2419;51.276;6.472;2024-02-21T02:52:17;9.10;99.90
4811;DHT22;2419;51.276;6.472;2024-02-21T02:54:45;9.10;99.90
4811;DHT22;2419;51.276;6.472;2024-02-21T02:57:18;9.00;99.90
4811;DHT22;2419;51.276;6.472;2024-02-21T02:59:49;9.00;99.90
4811;DHT22;2419;51.276;6.472;2024-02-21T03:02:17;9.00;99.90
4811;DHT22;2419;51.276;6.472;2024-02-21T03:04:45;9.00;99.90
4811;DHT22;2419;51.276;6.472;2024-02-21T03:07:14;9.00;99.90
4811;DHT22;2419;51.276;6.472;2024-02-21T03:09:43;9.00;99.90
4811;DHT22;2419;51.276;6.472;2024-02-21T03:12:11;9.00;99.90
4811;DHT22;2419;51.276;6.472;2024-02-21T03:14:39;9.00;99.90
4811;DHT22;2419;51.276;6.472;2024-02-21T03:17:08;8.90;99.90
4811;DHT22;2419;51.276;6.472;2024-02-21T03:19:36;8.90;99.90
4811;DHT22;2419;51.276;6.472;2024-02-21T03:22:05;8.90;99.90
4811;DHT22;2419;51.276;6.472;2024-02-21T03:24:33;8.90;99.90
4811;DHT22;2419;51.276;6.472;2024-02-21T03:27:01;8.90;99.90
4811;DHT22;2419;51.276;6.472;2024-02-21T03:29:29;8.80;99.90
4811;DHT22;2419;51.276;6.472;2024-02-21T03:31:57;8.90;99.90
4811;DHT22;2419;51.276;6.472;2024-02-21T03:34:27;8.90;99.90
4811;DHT22;2419;51.276;6.472;2024-02-21T03:36:55;8.90;99.90
4811;DHT22;2419;51.276;6.472;2024-02-21T03:39:23;8.90;99.90
4811;DHT22;2419;51.276;6.472;2024-02-21T03:41:51;8.90;99.90
4811;DHT22;2419;51.276;6.472;2024-02-21T03:44:19;8.90;99.90
4811;DHT22;2419;51.276;6.472;2024-02-21T03:46:47;8.90;99.90
4811;DHT22;2419;51.276;6.472;2024-02-21T03:49:15;8.90;99.90
4811;DHT22;2419;51.276;6.472;2024-02-21T03:51:46;8.90;99.90
4811;DHT22;2419;51.276;6.472;2024-02-21T03:54:14;8.80;99.90
4811;DHT22;2419;51.276;6.472;2024-02-21T03:56:42;8.80;99.90
4811;DHT22;2419;51.276;6.472;2024-02-21T03:59:10;8.80;99.90
4811;DHT22;2419;51.276;6.472;2024-02-21T04:01:38;8.90;99.90
4811;DHT22;2419;51.276;6.472;2024-02-21T04:04:06;8.80;99.90
4811;DHT22;2419;51.276;6.472;2024-02-21T04:06:34;8.90;99.90
4811;DHT22;2419;51.276;6.472;2024-02-21T04:09:04;8.80;99.90
4811;DHT22;2419;51.276;6.472;2024-02-21T04:11:32;8.80;99.90
4811;DHT22;2419;51.276;6.472;2024-02-21T04:14:00;8.90;99.90
4811;DHT22;2419;51.276;6.472;2024-02-21T04:16:29;8.90;99.90
4811;DHT22;2419;51.276;6.472;2024-02-21T04:18:57;8.90;99.90
4811;DHT22;2419;51.276;6.472;2024-02-21T04:21:25;8.90;99.90
4811;DHT22;2419;51.276;6.472;2024-02-21T04:23:53;8.90;99.90
4811;DHT22;2419;51.276;6.472;2024-02-21T04:26:23;8.90;99.90
4811;DHT22;2419;51.276;6.472;2024-02-21T04:28:51;8.90;99.90
4811;DHT22;2419;51.276;6.472;2024-02-21T04:31:19;8.90;99.90
4811;DHT22;2419;51.276;6.472;2024-02-21T04:33:48;8.90;99.90
4811;DHT22;2419;51.276;6.472;2024-02-21T04:36:16;8.90;99.90
4811;DHT22;2419;51.276;6.472;2024-02-21T04:38:44;8.90;99.90
4811;DHT22;2419;51.276;6.472;2024-02-21T04:41:12;8.90;99.90
4811;DHT22;2419;51.276;6.472;2024-02-21T04:43:42;8.90;99.90
4811;DHT22;2419;51.276;6.472;2024-02-21T04:46:10;8.90;99.90
4811;DHT22;2419;51.276;6.472;2024-02-21T04:48:38;9.00;99.90
4811;DHT22;2419;51.276;6.472;2024-02-21T04:51:06;8.90;99.90
4811;DHT22;2419;51.276;6.472;2024-02-21T04:53:34;8.90;99.90
4811;DHT22;2419;51.276;6.472;2024-02-21T04:56:02;8.90;99.90
4811;DHT22;2419;51.276;6.472;2024-02-21T04:58:30;8.90;99.90
4811;DHT22;2419;51.276;6.472;2024-02-21T05:01:00;8.90;99.90
4811;DHT22;2419;51.276;6.472;2024-02-21T05:03:28;8.90;99.90
4811;DHT22;2419;51.276;6.472;2024-02-21T05:05:56;8.90;99.90
4811;DHT22;2419;51.276;6.472;2024-02-21T05:08:24;8.90;99.90
4811;DHT22;2419;51.276;6.472;2024-02-21T05:10:52;8.80;99.90
4811;DHT22;2419;51.276;6.472;2024-02-21T05:13:21;8.80;99.90
4811;DHT22;2419;51.276;6.472;2024-02-21T05:15:49;8.80;99.90
4811;DHT22;2419;51.276;6.472;2024-02-21T05:18:18;8.80;99.90
4811;DHT22;2419;51.276;6.472;2024-02-21T05:20:47;8.90;99.90
4811;DHT22;2419;51.276;6.472;2024-02-21T05:23:15;8.90;99.90
4811;DHT22;2419;51.276;6.472;2024-02-21T05:25:43;8.90;99.90
4811;DHT22;2419;51.276;6.472;2024-02-21T05:28:11;8.80;99.90
4811;DHT22;2419;51.276;6.472;2024-02-21T05:30:39;8.80;99.90
4811;DHT22;2419;51.276;6.472;2024-02-21T05:33:10;8.90;99.90
4811;DHT22;2419;51.276;6.472;2024-02-21T05:35:39;8.90;99.90
4811;DHT22;2419;51.276;6.472;2024-02-21T05:38:07;8.90;99.90
4811;DHT22;2419;51.276;6.472;2024-02-21T05:40:38;8.90;99.90
4811;DHT22;2419;51.276;6.472;2024-02-21T05:43:07;8.80;99.90
4811;DHT22;2419;51.276;6.472;2024-02-21T05:45:35;8.80;99.90
4811;DHT22;2419;51.276;6.472;2024-02-21T05:48:04;8.80;99.90
4811;DHT22;2419;51.276;6.472;2024-02-21T05:50:33;8.80;99.90
4811;DHT22;2419;51.276;6.472;2024-02-21T05:53:02;8.80;99.90
4811;DHT22;2419;51.276;6.472;2024-02-21T05:55:31;8.80;99.90
4811;DHT22;2419;51.276;6.472;2024-02-21T05:57:59;8.90;99.90
4811;DHT22;2419;51.276;6.472;2024-02-21T06:00:27;8.80;99.90
4811;DHT22;2419;51.276;6.472;2024-02-21T06:02:55;8.80;99.90
4811;DHT22;2419;51.276;6.472;2024-02-21T06:05:23;8.80;99.90
4811;DHT22;2419;51.276;6.472;2024-02-21T06:07:51;8.90;99.90
4811;DHT22;2419;51.276;6.472;2024-02-21T06:10:21;8.80;99.90
4811;DHT22;2419;51.276;6.472;2024-02-21T06:12:49;8.80;99.90
4811;DHT22;2419;51.276;6.472;2024-02-21T06:15:17;8.80;99.90
4811;DHT22;2419;51.276;6.472;2024-02-21T06:17:45;8.80;99.90
4811;DHT22;2419;51.276;6.472;2024-02-21T06:20:15;8.80;99.90
4811;DHT22;2419;51.276;6.472;2024-02-21T06:22:43;8.80;99.90
4811;DHT22;2419;51.276;6.472;2024-02-21T06:25:12;8.90;99.90
4811;DHT22;2419;51.276;6.472;2024-02-21T06:27:41;8.90;99.90
4811;DHT22;2419;51.276;6.472;2024-02-21T06:30:10;8.80;99.90
4811;DHT22;2419;51.276;6.472;2024-02-21T06:32:38;8.80;99.90
4811;DHT22;2419;51.276;6.472;2024-02-21T06:35:06;8.90;99.90
4811;DHT22;2419;51.276;6.472;2024-02-21T06:37:35;8.90;99.90
4811;DHT22;2419;51.276;6.472;2024-02-21T06:40:04;8.90;99.90
4811;DHT22;2419;51.276;6.472;2024-02-21T06:42:32;8.90;99.90
4811;DHT22;2419;51.276;6.472;2024-02-21T06:45:01;8.90;99.90
4811;DHT22;2419;51.276;6.472;2024-02-21T06:47:29;8.90;99.90
4811;DHT22;2419;51.276;6.472;2024-02-21T06:49:57;8.90;99.90
4811;DHT22;2419;51.276;6.472;2024-02-21T06:52:26;8.90;99.90
4811;DHT22;2419;51.276;6.472;2024-02-21T06:54:54;8.90;99.90
4811;DHT22;2419;51.276;6.472;2024-02-21T06:57:22;8.90;99.90
4811;DHT22;2419;51.276;6.472;2024-02-21T06:59:50;8.90;99.90
4811;DHT22;2419;51.276;6.472;2024-02-21T07:02:19;9.00;99.90
4811;DHT22;2419;51.276;6.472;2024-02-21T07:04:48;8.90;99.90
4811;DHT22;2419;51.276;6.472;2024-02-21T07:07:16;9.00;99.90
4811;DHT22;2419;51.276;6.472;2024-02-21T07:09:44;8.90;99.90
4811;DHT22;2419;51.276;6.472;2024-02-21T07:12:15;9.00;99.90
4811;DHT22;2419;51.276;6.472;2024-02-21T07:14:44;9.00;99.90
4811;DHT22;2419;51.276;6.472;2024-02-21T07:17:12;9.00;99.90
4811;DHT22;2419;51.276;6.472;2024-02-21T07:19:42;9.00;99.90
4811;DHT22;2419;51.276;6.472;2024-02-21T07:22:10;8.90;99.90
4811;DHT22;2419;51.276;6.472;2024-02-21T07:24:38;9.00;99.90
4811;DHT22;2419;51.276;6.472;2024-02-21T07:27:06;8.90;99.90
4811;DHT22;2419;51.276;6.472;2024-02-21T07:29:34;9.00;99.90
4811;DHT22;2419;51.276;6.472;2024-02-21T07:32:02;9.00;99.90
4811;DHT22;2419;51.276;6.472;2024-02-21T07:34:30;8.90;99.90
4811;DHT22;2419;51.276;6.472;2024-02-21T07:37:00;9.00;99.90
4811;DHT22;2419;51.276;6.472;2024-02-21T07:39:28;8.90;99.90
4811;DHT22;2419;51.276;6.472;2024-02-21T07:41:56;9.00;99.90
4811;DHT22;2419;51.276;6.472;2024-02-21T07:44:24;9.00;99.90
4811;DHT22;2419;51.276;6.472;2024-02-21T07:46:52;9.00;99.90
4811;DHT22;2419;51.276;6.472;2024-02-21T07:49:20;9.00;99.90
4811;DHT22;2419;51.276;6.472;2024-02-21T07:51:48;9.00;99.90
4811;DHT22;2419;51.276;6.472;2024-02-21T07:54:18;9.00;99.90
4811;DHT22;2419;51.276;6.472;2024-02-21T07:56:47;8.90;99.90
4811;DHT22;2419;51.276;6.472;2024-02-21T07:59:15;8.90;99.90
4811;DHT22;2419;51.276;6.472;2024-02-21T08:01:43;8.80;99.90
4811;DHT22;2419;51.276;6.472;2024-02-21T08:04:12;8.80;99.90
4811;DHT22;2419;51.276;6.472;2024-02-21T08:06:41;8.80;99.90
4811;DHT22;2419;51.276;6.472;2024-02-21T08:09:10;8.70;99.90
4811;DHT22;2419;51.276;6.472;2024-02-21T08:11:39;8.70;99.90
4811;DHT22;2419;51.276;6.472;2024-02-21T08:14:07;8.70;99.90
4811;DHT22;2419;51.276;6.472;2024-02-21T08:16:35;8.70;99.90
4811;DHT22;2419;51.276;6.472;2024-02-21T08:19:03;8.80;99.90
4811;DHT22;2419;51.276;6.472;2024-02-21T08:21:31;8.80;99.90
4811;DHT22;2419;51.276;6.472;2024-02-21T08:24:00;8.80;99.90
4811;DHT22;2419;51.276;6.472;2024-02-21T08:26:28;8.80;99.90
4811;DHT22;2419;51.276;6.472;2024-02-21T08:28:59;8.90;99.90
4811;DHT22;2419;51.276;6.472;2024-02-21T08:31:28;8.80;99.90
4811;DHT22;2419;51.276;6.472;2024-02-21T08:33:58;8.80;99.90
4811;DHT22;2419;51.276;6.472;2024-02-21T08:36:30;8.80;99.90
4811;DHT22;2419;51.276;6.472;2024-02-21T08:38:58;8.90;99.90
4811;DHT22;2419;51.276;6.472;2024-02-21T08:41:27;8.90;99.90
4811;DHT22;2419;51.276;6.472;2024-02-21T08:44:16;8.80;99.90
4811;DHT22;2419;51.276;6.472;2024-02-21T08:46:44;8.90;99.90
4811;DHT22;2419;51.276;6.472;2024-02-21T08:49:14;8.90;99.90
4811;DHT22;2419;51.276;6.472;2024-02-21T08:51:42;8.90;99.90
4811;DHT22;2419;51.276;6.472;2024-02-21T08:54:11;9.00;99.90
4811;DHT22;2419;51.276;6.472;2024-02-21T08:56:39;9.00;99.90
4811;DHT22;2419;51.276;6.472;2024-02-21T08:59:07;9.00;99.90
4811;DHT22;2419;51.276;6.472;2024-02-21T09:01:36;9.00;99.90
4811;DHT22;2419;51.276;6.472;2024-02-21T09:04:05;9.00;99.90
4811;DHT22;2419;51.276;6.472;2024-02-21T09:06:34;9.00;99.90
4811;DHT22;2419;51.276;6.472;2024-02-21T09:09:06;9.00;99.90
4811;DHT22;2419;51.276;6.472;2024-02-21T09:11:35;9.00;99.90
4811;DHT22;2419;51.276;6.472;2024-02-21T09:14:03;9.00;99.90
4811;DHT22;2419;51.276;6.472;2024-02-21T09:16:31;9.00;99.90
4811;DHT22;2419;51.276;6.472;2024-02-21T09:19:01;9.00;99.90
4811;DHT22;2419;51.276;6.472;2024-02-21T09:21:29;9.00;99.90
4811;DHT22;2419;51.276;6.472;2024-02-21T09:23:57;9.10;99.90
4811;DHT22;2419;51.276;6.472;2024-02-21T09:26:26;9.10;99.90
4811;DHT22;2419;51.276;6.472;2024-02-21T09:28:54;9.20;99.90
4811;DHT22;2419;51.276;6.472;2024-02-21T09:31:23;9.20;99.90
4811;DHT22;2419;51.276;6.472;2024-02-21T09:33:51;9.20;99.90
4811;DHT22;2419;51.276;6.472;2024-02-21T09:36:20;9.20;99.90
4811;DHT22;2419;51.276;6.472;2024-02-21T09:38:49;9.10;99.90
4811;DHT22;2419;51.276;6.472;2024-02-21T09:41:18;9.10;99.90
4811;DHT22;2419;51.276;6.472;2024-02-21T09:43:52;9.20;99.90
4811;DHT22;2419;51.276;6.472;2024-02-21T09:46:28;9.30;99.90
4811;DHT22;2419;51.276;6.472;2024-02-21T09:49:06;9.30;99.90
4811;DHT22;2419;51.276;6.472;2024-02-21T09:51:40;9.40;99.90
4811;DHT22;2419;51.276;6.472;2024-02-21T09:54:09;9.40;99.90
4811;DHT22;2419;51.276;6.472;2024-02-21T09:56:45;9.50;99.90
4811;DHT22;2419;51.276;6.472;2024-02-21T09:59:14;9.50;99.90
4811;DHT22;2419;51.276;6.472;2024-02-21T10:01:43;9.50;99.90
4811;DHT22;2419;51.276;6.472;2024-02-21T10:04:11;9.50;99.90
4811;DHT22;2419;51.276;6.472;2024-02-21T10:06:41;9.50;99.90
4811;DHT22;2419;51.276;6.472;2024-02-21T10:09:20;9.50;99.90
4811;DHT22;2419;51.276;6.472;2024-02-21T10:11:49;9.50;99.90
4811;DHT22;2419;51.276;6.472;2024-02-21T10:14:17;9.60;99.90
4811;DHT22;2419;51.276;6.472;2024-02-21T10:16:46;9.60;99.90
4811;DHT22;2419;51.276;6.472;2024-02-21T10:19:18;9.70;99.90
4811;DHT22;2419;51.276;6.472;2024-02-21T10:22:01;9.70;99.90
4811;DHT22;2419;51.276;6.472;2024-02-21T10:24:31;9.80;99.90
4811;DHT22;2419;51.276;6.472;2024-02-21T10:27:01;9.90;99.90
4811;DHT22;2419;51.276;6.472;2024-02-21T10:29:30;10.00;99.90
4811;DHT22;2419;51.276;6.472;2024-02-21T10:32:05;10.00;99.90
4811;DHT22;2419;51.276;6.472;2024-02-21T10:34:34;10.10;99.90
4811;DHT22;2419;51.276;6.472;2024-02-21T10:37:05;10.10;99.90
4811;DHT22;2419;51.276;6.472;2024-02-21T10:39:34;10.10;99.90
4811;DHT22;2419;51.276;6.472;2024-02-21T10:42:04;10.00;99.90
4811;DHT22;2419;51.276;6.472;2024-02-21T10:44:33;10.00;99.90
4811;DHT22;2419;51.276;6.472;2024-02-21T10:47:07;10.10;99.90
4811;DHT22;2419;51.276;6.472;2024-02-21T10:49:38;10.20;99.90
4811;DHT22;2419;51.276;6.472;2024-02-21T10:52:13;10.30;99.90
4811;DHT22;2419;51.276;6.472;2024-02-21T10:54:44;10.20;99.90
4811;DHT22;2419;51.276;6.472;2024-02-21T10:57:13;10.30;99.90
4811;DHT22;2419;51.276;6.472;2024-02-21T10:59:44;10.30;99.90
4811;DHT22;2419;51.276;6.472;2024-02-21T11:02:12;10.30;99.90
4811;DHT22;2419;51.276;6.472;2024-02-21T11:04:41;10.30;99.90
4811;DHT22;2419;51.276;6.472;2024-02-21T11:07:12;10.40;99.90
4811;DHT22;2419;51.276;6.472;2024-02-21T11:09:40;10.60;99.90
4811;DHT22;2419;51.276;6.472;2024-02-21T11:12:09;10.60;99.90
4811;DHT22;2419;51.276;6.472;2024-02-21T11:14:38;10.70;99.90
4811;DHT22;2419;51.276;6.472;2024-02-21T11:17:15;10.80;99.90
4811;DHT22;2419;51.276;6.472;2024-02-21T11:19:44;10.80;99.90
4811;DHT22;2419;51.276;6.472;2024-02-21T11:22:17;10.80;99.90
4811;DHT22;2419;51.276;6.472;2024-02-21T11:24:46;10.80;99.90
4811;DHT22;2419;51.276;6.472;2024-02-21T11:27:15;10.60;99.90
4811;DHT22;2419;51.276;6.472;2024-02-21T11:29:44;10.70;99.90
4811;DHT22;2419;51.276;6.472;2024-02-21T11:32:15;10.60;99.90
4811;DHT22;2419;51.276;6.472;2024-02-21T11:34:53;10.50;99.90
4811;DHT22;2419;51.276;6.472;2024-02-21T11:37:25;10.50;99.90
4811;DHT22;2419;51.276;6.472;2024-02-21T11:39:54;10.60;99.90
4811;DHT22;2419;51.276;6.472;2024-02-21T11:42:22;10.60;99.90
4811;DHT22;2419;51.276;6.472;2024-02-21T11:44:53;10.60;99.90
4811;DHT22;2419;51.276;6.472;2024-02-21T11:47:23;10.70;99.90
4811;DHT22;2419;51.276;6.472;2024-02-21T11:49:52;10.70;99.90
4811;DHT22;2419;51.276;6.472;2024-02-21T11:52:24;10.70;99.90
4811;DHT22;2419;51.276;6.472;2024-02-21T11:54:53;10.80;99.90
4811;DHT22;2419;51.276;6.472;2024-02-21T11:57:24;10.90;99.90
4811;DHT22;2419;51.276;6.472;2024-02-21T11:59:52;10.90;99.90
4811;DHT22;2419;51.276;6.472;2024-02-21T12:02:26;11.10;99.90
4811;DHT22;2419;51.276;6.472;2024-02-21T12:04:55;11.20;99.90
4811;DHT22;2419;51.276;6.472;2024-02-21T12:07:25;11.20;99.90
4811;DHT22;2419;51.276;6.472;2024-02-21T12:09:58;11.30;99.90
4811;DHT22;2419;51.276;6.472;2024-02-21T12:12:27;11.30;99.90
4811;DHT22;2419;51.276;6.472;2024-02-21T12:14:56;11.20;99.90
4811;DHT22;2419;51.276;6.472;2024-02-21T12:17:25;11.40;99.90
4811;DHT22;2419;51.276;6.472;2024-02-21T12:19:53;11.60;99.90
4811;DHT22;2419;51.276;6.472;2024-02-21T12:22:21;11.60;99.90
4811;DHT22;2419;51.276;6.472;2024-02-21T12:24:50;11.70;99.90
4811;DHT22;2419;51.276;6.472;2024-02-21T12:27:18;11.80;99.90
4811;DHT22;2419;51.276;6.472;2024-02-21T12:29:46;11.80;99.90
4811;DHT22;2419;51.276;6.472;2024-02-21T12:32:15;11.90;99.90
4811;DHT22;2419;51.276;6.472;2024-02-21T12:34:43;11.90;99.90
4811;DHT22;2419;51.276;6.472;2024-02-21T12:37:22;11.90;99.90
4811;DHT22;2419;51.276;6.472;2024-02-21T12:39:51;12.10;99.90
4811;DHT22;2419;51.276;6.472;2024-02-21T12:42:19;12.10;99.90
4811;DHT22;2419;51.276;6.472;2024-02-21T12:44:47;12.10;99.90
4811;DHT22;2419;51.276;6.472;2024-02-21T12:47:15;12.00;99.90
4811;DHT22;2419;51.276;6.472;2024-02-21T12:49:46;11.90;99.90
4811;DHT22;2419;51.276;6.472;2024-02-21T12:52:14;12.10;99.90
4811;DHT22;2419;51.276;6.472;2024-02-21T12:54:43;12.20;99.90
4811;DHT22;2419;51.276;6.472;2024-02-21T12:57:12;12.50;99.90
4811;DHT22;2419;51.276;6.472;2024-02-21T12:59:41;12.60;99.90
4811;DHT22;2419;51.276;6.472;2024-02-21T13:02:09;12.60;99.90
4811;DHT22;2419;51.276;6.472;2024-02-21T13:04:37;12.60;99.90
4811;DHT22;2419;51.276;6.472;2024-02-21T13:07:07;12.40;99.90
4811;DHT22;2419;51.276;6.472;2024-02-21T13:09:35;12.40;99.90
4811;DHT22;2419;51.276;6.472;2024-02-21T13:12:04;12.30;99.90
4811;DHT22;2419;51.276;6.472;2024-02-21T13:14:34;12.40;99.90
4811;DHT22;2419;51.276;6.472;2024-02-21T13:17:02;12.30;99.90
4811;DHT22;2419;51.276;6.472;2024-02-21T13:19:30;12.50;99.90
4811;DHT22;2419;51.276;6.472;2024-02-21T13:21:58;12.30;99.90
4811;DHT22;2419;51.276;6.472;2024-02-21T13:24:27;12.30;99.90
4811;DHT22;2419;51.276;6.472;2024-02-21T13:26:55;12.10;99.90
4811;DHT22;2419;51.276;6.472;2024-02-21T13:29:23;12.00;99.90
4811;DHT22;2419;51.276;6.472;2024-02-21T13:31:52;11.80;99.90
4811;DHT22;2419;51.276;6.472;2024-02-21T13:34:20;11.80;99.90
4811;DHT22;2419;51.276;6.472;2024-02-21T13:36:48;11.70;99.90
4811;DHT22;2419;51.276;6.472;2024-02-21T13:39:16;11.70;99.90
4811;DHT22;2419;51.276;6.472;2024-02-21T13:41:46;11.60;99.90
4811;DHT22;2419;51.276;6.472;2024-02-21T13:44:14;11.60;99.90
4811;DHT22;2419;51.276;6.472;2024-02-21T13:46:42;11.60;99.90
4811;DHT22;2419;51.276;6.472;2024-02-21T13:49:11;11.60;99.90
4811;DHT22;2419;51.276;6.472;2024-02-21T13:51:40;11.60;99.90
4811;DHT22;2419;51.276;6.472;2024-02-21T13:54:09;11.60;99.90
4811;DHT22;2419;51.276;6.472;2024-02-21T13:56:38;11.60;99.90
4811;DHT22;2419;51.276;6.472;2024-02-21T13:59:06;11.70;99.90
4811;DHT22;2419;51.276;6.472;2024-02-21T14:01:35;11.70;99.90
4811;DHT22;2419;51.276;6.472;2024-02-21T14:04:03;11.70;99.90
4811;DHT22;2419;51.276;6.472;2024-02-21T14:06:33;11.80;99.90
4811;DHT22;2419;51.276;6.472;2024-02-21T14:09:01;11.90;99.90
4811;DHT22;2419;51.276;6.472;2024-02-21T14:11:29;12.00;99.90
4811;DHT22;2419;51.276;6.472;2024-02-21T14:13:58;12.00;99.90
4811;DHT22;2419;51.276;6.472;2024-02-21T14:16:26;12.10;99.90
4811;DHT22;2419;51.276;6.472;2024-02-21T14:18:56;12.10;99.90
4811;DHT22;2419;51.276;6.472;2024-02-21T14:21:24;12.00;99.90
4811;DHT22;2419;51.276;6.472;2024-02-21T14:23:54;12.10;99.90
4811;DHT22;2419;51.276;6.472;2024-02-21T14:26:23;12.10;99.90
4811;DHT22;2419;51.276;6.472;2024-02-21T14:28:51;12.10;99.90
4811;DHT22;2419;51.276;6.472;2024-02-21T14:31:19;12.20;99.90
4811;DHT22;2419;51.276;6.472;2024-02-21T14:33:47;12.20;99.90
4811;DHT22;2419;51.276;6.472;2024-02-21T14:36:15;12.10;99.90
4811;DHT22;2419;51.276;6.472;2024-02-21T14:38:44;12.10;99.90
4811;DHT22;2419;51.276;6.472;2024-02-21T14:41:13;12.10;99.90
4811;DHT22;2419;51.276;6.472;2024-02-21T14:43:41;12.10;99.90
4811;DHT22;2419;51.276;6.472;2024-02-21T14:46:12;12.00;99.90
4811;DHT22;2419;51.276;6.472;2024-02-21T14:48:40;12.00;99.90
4811;DHT22;2419;51.276;6.472;2024-02-21T14:51:08;12.00;99.90
4811;DHT22;2419;51.276;6.472;2024-02-21T14:53:36;12.00;99.90
4811;DHT22;2419;51.276;6.472;2024-02-21T14:56:05;12.00;99.90
4811;DHT22;2419;51.276;6.472;2024-02-21T14:58:41;11.90;99.90
4811;DHT22;2419;51.276;6.472;2024-02-21T15:01:10;12.00;99.90
4811;DHT22;2419;51.276;6.472;2024-02-21T15:03:40;12.00;99.90
4811;DHT22;2419;51.276;6.472;2024-02-21T15:06:08;12.00;99.90
4811;DHT22;2419;51.276;6.472;2024-02-21T15:08:37;11.90;99.90
4811;DHT22;2419;51.276;6.472;2024-02-21T15:11:05;11.90;99.90
4811;DHT22;2419;51.276;6.472;2024-02-21T15:13:34;11.90;99.90
4811;DHT22;2419;51.276;6.472;2024-02-21T15:16:05;11.90;99.90
4811;DHT22;2419;51.276;6.472;2024-02-21T15:18:33;11.80;99.90
4811;DHT22;2419;51.276;6.472;2024-02-21T15:21:05;11.90;99.90
4811;DHT22;2419;51.276;6.472;2024-02-21T15:23:34;11.80;99.90
4811;DHT22;2419;51.276;6.472;2024-02-21T15:26:02;11.80;99.90
4811;DHT22;2419;51.276;6.472;2024-02-21T15:28:30;11.80;99.90
4811;DHT22;2419;51.276;6.472;2024-02-21T15:30:58;11.80;99.90
4811;DHT22;2419;51.276;6.472;2024-02-21T15:33:27;11.80;99.90
4811;DHT22;2419;51.276;6.472;2024-02-21T15:35:56;11.80;99.90
4811;DHT22;2419;51.276;6.472;2024-02-21T15:38:24;11.80;99.90
4811;DHT22;2419;51.276;6.472;2024-02-21T15:40:52;11.70;99.90
4811;DHT22;2419;51.276;6.472;2024-02-21T15:43:20;11.70;99.90
4811;DHT22;2419;51.276;6.472;2024-02-21T15:45:51;11.70;99.90
4811;DHT22;2419;51.276;6.472;2024-02-21T15:48:19;11.60;99.90
4811;DHT22;2419;51.276;6.472;2024-02-21T15:50:53;11.60;99.90
4811;DHT22;2419;51.276;6.472;2024-02-21T15:53:21;11.60;99.90
4811;DHT22;2419;51.276;6.472;2024-02-21T15:55:49;11.60;99.90
4811;DHT22;2419;51.276;6.472;2024-02-21T15:58:17;11.50;99.90
4811;DHT22;2419;51.276;6.472;2024-02-21T16:00:47;11.50;99.90
4811;DHT22;2419;51.276;6.472;2024-02-21T16:03:15;11.50;99.90
4811;DHT22;2419;51.276;6.472;2024-02-21T16:05:43;11.40;99.90
4811;DHT22;2419;51.276;6.472;2024-02-21T16:08:13;11.40;99.90
4811;DHT22;2419;51.276;6.472;2024-02-21T16:10:45;11.40;99.90
4811;DHT22;2419;51.276;6.472;2024-02-21T16:13:13;11.30;99.90
4811;DHT22;2419;51.276;6.472;2024-02-21T16:15:41;11.30;99.90
4811;DHT22;2419;51.276;6.472;2024-02-21T16:18:11;11.10;99.90
4811;DHT22;2419;51.276;6.472;2024-02-21T16:20:39;10.90;99.90
4811;DHT22;2419;51.276;6.472;2024-02-21T16:23:07;10.80;99.90